createdAt,value
2022-11-29T00:01:23.778Z,280.88
2022-11-29T00:03:50.201Z,465.13
2022-11-29T00:06:24.701Z,310.33
2022-11-29T00:08:51.245Z,266.25
2022-11-29T00:11:38.908Z,396.88
2022-11-29T00:14:09.214Z,437.58
2022-11-29T00:16:35.962Z,432.97
2022-11-29T00:19:02.801Z,378.25
2022-11-29T00:21:29.435Z,371.40
2022-11-29T00:23:55.697Z,291.05
2022-11-29T00:26:22.048Z,464.80
2022-11-29T00:28:48.616Z,347.67
2022-11-29T00:31:24.183Z,407.70
2022-11-29T00:33:51.239Z,288.85
2022-11-29T00:36:17.785Z,225.65
2022-11-29T00:38:45.490Z,212.07
2022-11-29T00:41:11.957Z,304.63
2022-11-29T00:43:39.033Z,318.13
2022-11-29T00:46:05.810Z,216.98
2022-11-29T00:48:32.357Z,446.13
2022-11-29T00:50:58.628Z,389.90
2022-11-29T00:53:25.151Z,296.30
2022-11-29T00:55:52.298Z,621.88
2022-11-29T00:58:19.392Z,326.02
2022-11-29T01:00:45.709Z,518.97
2022-11-29T01:03:12.045Z,358.10
2022-11-29T01:05:38.354Z,357.80
2022-11-29T01:08:04.821Z,465.30
2022-11-29T01:10:31.177Z,407.83
2022-11-29T01:12:57.530Z,403.85
2022-11-29T01:15:23.892Z,354.73
2022-11-29T01:17:50.405Z,453.30
2022-11-29T01:20:16.796Z,377.98
2022-11-29T01:22:43.242Z,433.67
2022-11-29T01:25:11.467Z,308.52
2022-11-29T01:27:37.941Z,317.63
2022-11-29T01:30:05.164Z,302.30
2022-11-29T01:32:31.493Z,263.98
2022-11-29T01:34:57.847Z,132.80
2022-11-29T01:37:24.382Z,228.95
2022-11-29T01:39:50.763Z,222.30
2022-11-29T01:42:17.139Z,171.05
2022-11-29T01:44:46.854Z,237.20
2022-11-29T01:47:13.380Z,183.48
2022-11-29T01:49:44.380Z,266.05
2022-11-29T01:52:13.672Z,261.63
2022-11-29T01:54:47.233Z,177.82
2022-11-29T01:57:13.789Z,185.90
2022-11-29T01:59:46.432Z,181.48
2022-11-29T02:02:18.335Z,157.05
2022-11-29T02:04:45.680Z,153.55
2022-11-29T02:07:12.348Z,175.95
2022-11-29T02:09:38.817Z,127.80
2022-11-29T02:12:05.123Z,138.13
2022-11-29T02:14:49.618Z,199.75
2022-11-29T02:17:41.269Z,150.32
2022-11-29T02:20:07.607Z,188.45
2022-11-29T02:22:47.480Z,277.95
2022-11-29T02:25:22.965Z,156.20
2022-11-29T02:27:52.330Z,161.95
2022-11-29T02:30:21.092Z,163.63
2022-11-29T02:33:01.032Z,272.92
2022-11-29T02:35:46.427Z,223.88
2022-11-29T02:38:12.821Z,264.50
2022-11-29T02:40:48.384Z,194.02
2022-11-29T02:43:33.583Z,174.48
2022-11-29T02:46:08.120Z,192.52
2022-11-29T02:48:37.720Z,341.20
2022-11-29T02:51:22.242Z,300.48
2022-11-29T02:53:48.532Z,244.50
2022-11-29T02:56:23.525Z,346.27
2022-11-29T02:58:58.613Z,263.33
2022-11-29T03:01:29.825Z,396.70
2022-11-29T03:04:13.815Z,274.75
2022-11-29T03:06:40.149Z,495.83
2022-11-29T03:09:12.680Z,373.08
2022-11-29T03:11:57.994Z,253.50
2022-11-29T03:14:30.935Z,251.60
2022-11-29T03:17:16.136Z,196.85
2022-11-29T03:19:50.834Z,562.75
2022-11-29T03:22:30.388Z,652.92
2022-11-29T03:25:07.950Z,668.45
2022-11-29T03:27:53.025Z,509.52
2022-11-29T03:30:19.972Z,507.13
2022-11-29T03:32:55.491Z,509.15
2022-11-29T03:35:37.027Z,510.75
2022-11-29T03:38:21.849Z,275.35
2022-11-29T03:40:51.579Z,335.25
2022-11-29T03:43:30.540Z,315.58
2022-11-29T03:46:02.769Z,320.20
2022-11-29T03:48:31.423Z,282.13
2022-11-29T03:51:01.580Z,590.53
2022-11-29T03:53:27.877Z,265.03
2022-11-29T03:55:56.564Z,218.23
2022-11-29T03:58:35.981Z,293.90
2022-11-29T04:01:14.638Z,227.90
2022-11-29T04:03:53.081Z,298.90
2022-11-29T04:06:22.470Z,209.73
2022-11-29T04:09:16.539Z,287.05
2022-11-29T04:11:59.210Z,263.35
2022-11-29T04:14:34.769Z,281.42
2022-11-29T04:17:19.897Z,207.10
2022-11-29T04:19:46.225Z,384.52
2022-11-29T04:22:31.432Z,219.65
2022-11-29T04:25:16.125Z,263.50
2022-11-29T04:28:01.275Z,357.10
2022-11-29T04:30:30.892Z,446.77
2022-11-29T04:32:59.985Z,353.20
2022-11-29T04:35:35.532Z,301.98
2022-11-29T04:38:04.908Z,265.90
2022-11-29T04:40:38.545Z,237.13
2022-11-29T04:43:20.077Z,293.98
2022-11-29T04:45:58.955Z,255.73
2022-11-29T04:48:44.176Z,176.77
2022-11-29T04:51:22.786Z,226.07
2022-11-29T04:53:49.134Z,294.98
2022-11-29T04:56:34.183Z,184.60
2022-11-29T04:59:16.306Z,296.42
2022-11-29T05:01:57.615Z,298.52
2022-11-29T05:04:36.078Z,151.55
2022-11-29T05:07:08.358Z,146.77
2022-11-29T05:09:34.742Z,220.68
2022-11-29T05:12:17.081Z,178.90
2022-11-29T05:14:46.368Z,242.52
2022-11-29T05:17:26.335Z,192.48
2022-11-29T05:20:03.410Z,276.13
2022-11-29T05:22:29.755Z,450.80
2022-11-29T05:24:56.065Z,210.75
2022-11-29T05:27:42.815Z,167.85
2022-11-29T05:30:12.750Z,299.92
2022-11-29T05:32:46.348Z,417.38
2022-11-29T05:35:24.794Z,186.10
2022-11-29T05:37:59.437Z,171.45
2022-11-29T05:40:40.556Z,235.45
2022-11-29T05:43:06.806Z,250.02
2022-11-29T05:45:42.628Z,297.80
2022-11-29T05:48:27.713Z,288.35
2022-11-29T05:51:15.989Z,138.80
2022-11-29T05:53:46.355Z,268.48
2022-11-29T05:56:40.063Z,213.80
2022-11-29T05:59:12.590Z,375.55
2022-11-29T06:01:58.686Z,207.80
2022-11-29T06:04:33.175Z,264.88
2022-11-29T06:07:15.966Z,215.25
2022-11-29T06:09:48.656Z,180.95
2022-11-29T06:12:20.759Z,247.52
2022-11-29T06:14:50.847Z,130.32
2022-11-29T06:17:38.779Z,220.98
2022-11-29T06:20:31.632Z,165.07
2022-11-29T06:23:04.151Z,242.38
2022-11-29T06:25:42.254Z,221.80
2022-11-29T06:28:27.365Z,115.82
2022-11-29T06:31:05.398Z,171.20
2022-11-29T06:33:31.725Z,249.18
2022-11-29T06:36:07.393Z,141.70
2022-11-29T06:38:34.095Z,125.03
2022-11-29T06:41:02.307Z,230.27
2022-11-29T06:43:29.627Z,154.48
2022-11-29T06:46:00.595Z,145.02
2022-11-29T06:48:34.829Z,181.05
2022-11-29T06:51:08.271Z,154.00
2022-11-29T06:53:42.739Z,172.00
2022-11-29T06:56:15.307Z,127.45
2022-11-29T06:58:50.666Z,195.45
2022-11-29T07:01:24.717Z,278.75
2022-11-29T07:04:11.358Z,232.23
2022-11-29T07:06:39.257Z,278.20
2022-11-29T07:09:13.257Z,246.07
2022-11-29T07:11:40.078Z,190.45
2022-11-29T07:14:06.496Z,127.15
2022-11-29T07:16:36.032Z,258.40
2022-11-29T07:19:11.988Z,133.90
2022-11-29T07:21:57.264Z,171.55
2022-11-29T07:24:45.754Z,162.25
2022-11-29T07:27:13.300Z,132.38
2022-11-29T07:29:39.671Z,110.57
2022-11-29T07:32:14.792Z,66.40
2022-11-29T07:35:00.378Z,108.38
2022-11-29T07:37:39.048Z,105.47
2022-11-29T07:40:05.553Z,94.72
2022-11-29T07:42:31.885Z,175.68
2022-11-29T07:45:07.277Z,111.85
2022-11-29T07:47:35.930Z,182.90
2022-11-29T07:50:02.793Z,92.72
2022-11-29T07:52:29.144Z,134.10
2022-11-29T07:54:55.800Z,152.50
2022-11-29T07:57:22.632Z,72.88
2022-11-29T07:59:49.240Z,156.82
2022-11-29T08:02:25.587Z,49.50
2022-11-29T08:04:52.006Z,86.38
2022-11-29T08:07:18.564Z,81.53
2022-11-29T08:09:45.281Z,151.18
2022-11-29T08:12:12.006Z,154.15
2022-11-29T08:14:38.289Z,67.38
2022-11-29T08:17:04.778Z,117.68
2022-11-29T08:19:31.723Z,175.60
2022-11-29T08:21:58.169Z,80.35
2022-11-29T08:24:24.524Z,89.28
2022-11-29T08:26:50.788Z,118.72
2022-11-29T08:29:17.360Z,73.28
2022-11-29T08:31:44.124Z,90.78
2022-11-29T08:34:10.711Z,127.43
2022-11-29T08:36:37.019Z,105.18
2022-11-29T08:39:09.190Z,72.22
2022-11-29T08:41:35.757Z,73.43
2022-11-29T08:44:02.290Z,104.05
2022-11-29T08:46:48.540Z,120.10
2022-11-29T08:49:14.943Z,116.95
2022-11-29T08:51:41.336Z,75.70
2022-11-29T08:54:07.822Z,124.40
2022-11-29T08:59:22.803Z,75.32
2022-11-29T09:01:49.172Z,108.35
2022-11-29T09:04:17.033Z,227.48
2022-11-29T09:06:44.429Z,139.98
2022-11-29T09:09:10.941Z,264.67
2022-11-29T09:11:37.254Z,111.65
2022-11-29T09:14:05.380Z,108.43
2022-11-29T09:16:33.647Z,166.77
2022-11-29T09:19:00.454Z,190.88
2022-11-29T09:21:29.025Z,170.40
2022-11-29T09:23:59.215Z,77.40
2022-11-29T09:26:27.466Z,41.73
2022-11-29T09:28:54.159Z,49.70
2022-11-29T09:31:21.328Z,105.05
2022-11-29T09:33:48.629Z,151.65
2022-11-29T09:36:15.146Z,95.25
2022-11-29T09:38:42.555Z,149.98
2022-11-29T09:41:45.648Z,138.32
2022-11-29T09:44:29.542Z,90.00
2022-11-29T09:49:38.301Z,59.08
2022-11-29T09:52:19.912Z,53.42
2022-11-29T09:55:10.335Z,53.60
2022-11-29T09:57:37.251Z,51.17
2022-11-29T10:00:06.182Z,70.90
2022-11-29T10:02:47.956Z,39.63
2022-11-29T10:05:17.148Z,145.52
2022-11-29T10:07:45.020Z,118.78
2022-11-29T10:10:20.070Z,70.25
2022-11-29T10:12:48.328Z,186.80
2022-11-29T10:15:17.786Z,324.30
2022-11-29T10:17:47.323Z,146.18
2022-11-29T10:20:21.408Z,197.27
2022-11-29T10:23:00.073Z,167.10
2022-11-29T10:25:30.496Z,127.45
2022-11-29T10:27:57.402Z,157.00
2022-11-29T10:30:23.908Z,105.28
2022-11-29T10:32:52.281Z,62.03
2022-11-29T10:35:19.424Z,45.28
2022-11-29T10:38:01.409Z,120.63
2022-11-29T10:40:32.263Z,53.20
2022-11-29T10:42:58.824Z,49.10
2022-11-29T10:45:25.323Z,37.92
2022-11-29T10:47:52.960Z,67.55
2022-11-29T10:50:23.338Z,47.90
2022-11-29T10:52:49.637Z,37.33
2022-11-29T10:55:16.884Z,76.25
2022-11-29T10:58:02.073Z,70.10
2022-11-29T11:00:28.553Z,83.45
2022-11-29T11:02:54.844Z,78.45
2022-11-29T11:05:25.979Z,44.60
2022-11-29T11:10:28.769Z,26.38
2022-11-29T11:13:05.583Z,54.95
2022-11-29T11:15:32.767Z,44.63
2022-11-29T11:18:00.033Z,22.92
2022-11-29T11:20:28.996Z,29.38
2022-11-29T11:23:00.074Z,23.33
2022-11-29T11:27:53.453Z,20.48
2022-11-29T11:30:24.182Z,25.52
2022-11-29T11:33:06.741Z,24.85
2022-11-29T11:35:33.057Z,20.23
2022-11-29T11:37:59.503Z,21.80
2022-11-29T11:40:28.940Z,29.08
2022-11-29T11:43:00.293Z,24.65
2022-11-29T11:45:34.191Z,21.25
2022-11-29T11:48:19.170Z,23.95
2022-11-29T11:50:50.010Z,22.25
2022-11-29T11:53:24.876Z,21.27
2022-11-29T11:55:59.177Z,21.67
2022-11-29T11:58:32.761Z,21.27
2022-11-29T12:01:04.651Z,21.15
2022-11-29T12:03:31.529Z,22.02
2022-11-29T12:06:00.696Z,27.13
2022-11-29T12:08:27.760Z,19.85
2022-11-29T12:10:56.009Z,21.65
2022-11-29T12:13:25.325Z,18.35
2022-11-29T12:15:52.407Z,20.08
2022-11-29T12:18:24.593Z,20.65
2022-11-29T12:20:57.025Z,22.77
2022-11-29T12:23:27.543Z,19.60
2022-11-29T12:25:57.665Z,23.75
2022-11-29T12:28:32.324Z,22.27
2022-11-29T12:31:01.872Z,22.92
2022-11-29T12:33:42.962Z,21.63
2022-11-29T12:36:22.193Z,22.33
2022-11-29T12:38:57.495Z,28.73
2022-11-29T12:41:42.658Z,21.48
2022-11-29T12:44:12.985Z,23.92
2022-11-29T12:46:39.985Z,25.30
2022-11-29T12:49:14.805Z,22.40
2022-11-29T12:51:41.284Z,28.17
2022-11-29T12:54:18.517Z,26.92
2022-11-29T12:56:49.757Z,25.20
2022-11-29T12:59:25.329Z,23.48
2022-11-29T13:02:27.371Z,23.55
2022-11-29T13:05:00.285Z,28.08
2022-11-29T13:07:29.749Z,21.05
2022-11-29T13:10:18.027Z,26.10
2022-11-29T13:13:07.774Z,22.45
2022-11-29T13:16:00.480Z,27.45
2022-11-29T13:18:50.319Z,20.35
2022-11-29T13:21:20.164Z,24.98
2022-11-29T13:24:08.394Z,22.77
2022-11-29T13:26:36.533Z,26.92
2022-11-29T13:29:03.324Z,27.25
2022-11-29T13:31:29.887Z,22.80
2022-11-29T13:33:56.544Z,28.00
2022-11-29T13:36:26.425Z,25.90
2022-11-29T13:39:08.254Z,22.98
2022-11-29T13:41:41.031Z,24.70
2022-11-29T13:44:19.887Z,25.75
2022-11-29T13:46:52.585Z,18.40
2022-11-29T13:49:23.487Z,21.33
2022-11-29T13:52:03.257Z,19.52
2022-11-29T13:54:31.803Z,24.90
2022-11-29T13:57:06.591Z,20.42
2022-11-29T13:59:34.611Z,20.63
2022-11-29T14:02:01.201Z,22.00
2022-11-29T14:04:30.786Z,17.88
2022-11-29T14:07:06.284Z,23.73
2022-11-29T14:09:44.793Z,22.73
2022-11-29T14:12:19.468Z,24.77
2022-11-29T14:14:54.021Z,20.63
2022-11-29T14:17:36.421Z,23.48
2022-11-29T14:20:22.804Z,20.92
2022-11-29T14:23:04.571Z,26.67
2022-11-29T14:28:18.043Z,28.80
2022-11-29T14:30:48.411Z,28.95
2022-11-29T14:33:25.247Z,26.48
2022-11-29T14:36:03.482Z,26.63
2022-11-29T14:38:50.139Z,22.42
2022-11-29T14:41:22.390Z,31.48
2022-11-29T14:43:48.804Z,22.75
2022-11-29T14:46:15.344Z,23.08
2022-11-29T14:48:45.369Z,28.65
2022-11-29T14:51:13.322Z,26.60
2022-11-29T14:53:40.877Z,29.38
2022-11-29T14:56:25.803Z,26.73
2022-11-29T14:59:10.986Z,39.58
2022-11-29T15:01:42.238Z,85.88
2022-11-29T15:04:09.243Z,146.98
2022-11-29T15:06:43.317Z,205.77
2022-11-29T15:09:19.616Z,170.77
2022-11-29T15:11:56.143Z,108.75
2022-11-29T15:14:29.173Z,308.42
2022-11-29T15:17:02.796Z,231.23
2022-11-29T15:19:52.577Z,220.55
2022-11-29T15:22:27.494Z,176.77
2022-11-29T15:24:53.827Z,156.55
2022-11-29T15:27:20.506Z,188.82
2022-11-29T15:29:48.377Z,163.10
2022-11-29T15:32:35.080Z,407.13
2022-11-29T15:35:01.958Z,100.20
2022-11-29T15:37:34.609Z,125.30
2022-11-29T15:40:05.970Z,211.90
2022-11-29T15:42:39.872Z,78.68
2022-11-29T15:45:24.694Z,257.20
2022-11-29T15:47:51.301Z,87.25
2022-11-29T15:50:25.705Z,202.25
2022-11-29T15:52:53.370Z,86.00
2022-11-29T15:55:20.164Z,178.27
2022-11-29T15:57:48.315Z,87.13
2022-11-29T16:00:24.110Z,86.43
2022-11-29T16:02:52.079Z,174.73
2022-11-29T16:05:18.377Z,137.70
2022-11-29T16:07:45.750Z,158.30
2022-11-29T16:10:17.827Z,126.00
2022-11-29T16:12:54.006Z,210.07
2022-11-29T16:15:26.500Z,134.30
2022-11-29T16:17:52.864Z,123.10
2022-11-29T16:20:24.143Z,72.07
2022-11-29T16:23:11.357Z,107.43
2022-11-29T16:25:56.734Z,146.25
2022-11-29T16:28:24.099Z,98.18
2022-11-29T16:30:50.459Z,94.57
2022-11-29T16:33:21.306Z,58.90
2022-11-29T16:35:47.779Z,91.20
2022-11-29T16:38:17.948Z,50.33
2022-11-29T16:41:01.080Z,34.90
2022-11-29T16:43:48.529Z,30.50
2022-11-29T16:46:14.966Z,35.05
2022-11-29T16:48:42.450Z,28.17
2022-11-29T16:51:14.872Z,32.05
2022-11-29T16:53:42.410Z,37.88
2022-11-29T16:56:10.735Z,30.17
2022-11-29T16:59:16.635Z,25.38
2022-11-29T17:01:25.192Z,27.00
2022-11-29T17:03:51.752Z,45.35
2022-11-29T17:06:21.172Z,45.28
2022-11-29T17:08:47.813Z,25.80
2022-11-29T17:11:14.124Z,34.10
2022-11-29T17:13:40.896Z,33.50
2022-11-29T17:16:12.580Z,24.60
2022-11-29T17:18:40.888Z,25.17
2022-11-29T17:21:07.629Z,24.17
2022-11-29T17:23:34.698Z,24.30
2022-11-29T17:26:02.133Z,23.58
2022-11-29T17:28:28.546Z,21.75
2022-11-29T17:30:54.956Z,25.08
2022-11-29T17:33:21.315Z,22.70
2022-11-29T17:35:47.641Z,23.38
2022-11-29T17:38:13.963Z,22.15
2022-11-29T17:40:40.440Z,22.05
2022-11-29T17:43:06.997Z,21.50
2022-11-29T17:45:33.402Z,21.02
2022-11-29T17:48:01.070Z,18.95
2022-11-29T17:50:27.432Z,17.70
2022-11-29T17:52:53.784Z,16.90
2022-11-29T17:55:20.882Z,17.20
2022-11-29T17:57:47.746Z,15.35
2022-11-29T18:00:15.473Z,15.90
2022-11-29T18:02:42.018Z,17.75
2022-11-29T18:05:08.619Z,18.48
2022-11-29T18:07:55.135Z,14.13
2022-11-29T18:10:22.119Z,15.25
2022-11-29T18:12:48.481Z,16.08
2022-11-29T18:15:14.793Z,15.10
2022-11-29T18:17:41.107Z,15.73
2022-11-29T18:20:07.893Z,13.70
2022-11-29T18:22:37.355Z,14.80
2022-11-29T18:25:30.740Z,15.70
2022-11-29T18:27:50.102Z,14.32
2022-11-29T18:30:16.849Z,16.33
2022-11-29T18:32:50.633Z,16.30
2022-11-29T18:35:17.140Z,15.68
2022-11-29T18:38:13.559Z,14.85
2022-11-29T18:40:30.088Z,13.00
2022-11-29T18:42:56.473Z,14.75
2022-11-29T18:45:22.808Z,17.83
2022-11-29T18:47:49.084Z,17.13
2022-11-29T18:50:15.409Z,13.88
2022-11-29T18:52:41.723Z,14.90
2022-11-29T18:55:08.153Z,13.25
2022-11-29T18:57:40.822Z,13.23
2022-11-29T19:00:07.845Z,15.20
2022-11-29T19:02:34.621Z,12.65
2022-11-29T19:05:04.021Z,13.57
2022-11-29T19:07:34.213Z,13.93
2022-11-29T19:10:00.994Z,13.30
2022-11-29T19:12:27.336Z,12.32
2022-11-29T19:14:53.748Z,14.18
2022-11-29T19:17:22.719Z,10.32
2022-11-29T19:19:49.073Z,14.52
2022-11-29T19:22:15.344Z,17.33
2022-11-29T19:24:41.673Z,12.50
2022-11-29T19:27:08.001Z,15.45
2022-11-29T19:29:39.459Z,17.30
2022-11-29T19:32:08.402Z,14.63
2022-11-29T19:34:34.730Z,12.15
2022-11-29T19:37:03.745Z,15.35
2022-11-29T19:39:35.684Z,14.98
2022-11-29T19:42:02.202Z,17.60
2022-11-29T19:44:30.102Z,16.63
2022-11-29T19:46:57.796Z,16.05
2022-11-29T19:49:24.137Z,17.92
2022-11-29T19:51:50.394Z,18.85
2022-11-29T19:54:16.841Z,15.00
2022-11-29T19:56:43.593Z,14.48
2022-11-29T19:59:10.394Z,13.50
2022-11-29T20:01:41.725Z,12.38
2022-11-29T20:04:09.531Z,11.23
2022-11-29T20:06:36.114Z,15.00
2022-11-29T20:09:02.712Z,14.98
2022-11-29T20:11:29.295Z,20.10
2022-11-29T20:13:57.136Z,19.35
2022-11-29T20:16:24.000Z,15.38
2022-11-29T20:18:51.669Z,15.82
2022-11-29T20:21:29.251Z,12.68
2022-11-29T20:23:56.697Z,19.13
2022-11-29T20:26:23.614Z,13.00
2022-11-29T20:28:50.055Z,10.50
2022-11-29T20:31:17.806Z,13.60
2022-11-29T20:33:45.393Z,14.23
2022-11-29T20:36:11.668Z,12.30
2022-11-29T20:38:58.405Z,15.32
2022-11-29T20:41:27.145Z,15.32
2022-11-29T20:43:58.698Z,12.93
2022-11-29T20:46:25.735Z,12.52
2022-11-29T20:48:52.967Z,13.25
2022-11-29T20:51:22.279Z,16.48
2022-11-29T20:53:48.653Z,17.77
2022-11-29T20:56:14.977Z,14.65
2022-11-29T20:58:41.666Z,12.48
2022-11-29T21:01:08.115Z,16.42
2022-11-29T21:03:34.633Z,18.35
2022-11-29T21:06:02.120Z,16.52
2022-11-29T21:08:29.237Z,10.45
2022-11-29T21:11:01.173Z,10.52
2022-11-29T21:13:27.718Z,14.38
2022-11-29T21:15:54.327Z,14.75
2022-11-29T21:18:25.794Z,14.57
2022-11-29T21:23:22.646Z,10.38
2022-11-29T21:25:54.835Z,13.60
2022-11-29T21:28:24.346Z,14.07
2022-11-29T21:30:50.926Z,15.35
2022-11-29T21:33:17.518Z,13.82
2022-11-29T21:35:43.954Z,11.38
2022-11-29T21:38:13.210Z,13.68
2022-11-29T21:40:39.623Z,14.95
2022-11-29T21:43:06.066Z,13.55
2022-11-29T21:45:33.898Z,19.15
2022-11-29T21:48:25.855Z,19.35
2022-11-29T21:50:52.149Z,12.25
2022-11-29T21:53:18.455Z,11.88
2022-11-29T21:55:44.737Z,11.98
2022-11-29T21:58:11.017Z,13.95
2022-11-29T22:00:39.038Z,17.55
2022-11-29T22:03:07.267Z,18.30
2022-11-29T22:05:33.614Z,20.25
2022-11-29T22:08:00.100Z,16.17
2022-11-29T22:10:27.949Z,15.60
2022-11-29T22:12:54.243Z,16.50
2022-11-29T22:15:24.744Z,19.08
2022-11-29T22:17:52.227Z,15.27
2022-11-29T22:20:19.063Z,16.55
2022-11-29T22:22:47.532Z,13.95
2022-11-29T22:25:14.352Z,15.07
2022-11-29T22:27:43.465Z,16.38
2022-11-29T22:30:10.074Z,14.48
2022-11-29T22:32:36.627Z,14.85
2022-11-29T22:35:02.988Z,13.88
2022-11-29T22:37:29.305Z,18.35
2022-11-29T22:39:55.668Z,14.38
2022-11-29T22:42:22.002Z,18.73
2022-11-29T22:44:48.571Z,17.13
2022-11-29T22:47:15.089Z,15.70
2022-11-29T22:49:41.615Z,15.23
2022-11-29T22:52:07.906Z,15.75
2022-11-29T22:54:34.218Z,14.57
2022-11-29T22:57:03.497Z,18.88
2022-11-29T22:59:29.957Z,19.52
2022-11-29T23:01:57.479Z,25.80
2022-11-29T23:04:23.809Z,24.77
2022-11-29T23:06:50.126Z,26.23
2022-11-29T23:09:19.738Z,22.88
2022-11-29T23:11:46.230Z,24.85
2022-11-29T23:14:12.839Z,25.00
2022-11-29T23:16:39.268Z,27.35
2022-11-29T23:19:05.753Z,25.23
2022-11-29T23:21:33.284Z,22.65
2022-11-29T23:24:02.628Z,25.02
2022-11-29T23:26:36.359Z,24.00
2022-11-29T23:29:03.657Z,28.00
2022-11-29T23:31:30.080Z,25.88
2022-11-29T23:33:59.021Z,23.88
2022-11-29T23:36:26.616Z,26.15
2022-11-29T23:38:53.084Z,23.45
2022-11-29T23:41:19.775Z,30.38
2022-11-29T23:43:47.055Z,28.30
2022-11-29T23:46:18.104Z,28.33
2022-11-29T23:51:13.105Z,27.73
2022-11-29T23:53:39.781Z,27.48
2022-11-29T23:56:07.522Z,30.13
2022-11-29T23:58:34.621Z,28.77
